sensor_id;sensor_type;location;lat;lon;timestamp;P1;durP1;ratioP1;P2;durP2;ratioP2
76157;SDS011;64907;51.574;6.502;2023-06-14T00:01:08;11.23;;;5.47;;
76157;SDS011;64907;51.574;6.502;2023-06-14T00:03:34;5.20;;;4.82;;
76157;SDS011;64907;51.574;6.502;2023-06-14T00:06:01;6.32;;;5.28;;
76157;SDS011;64907;51.574;6.502;2023-06-14T00:08:26;5.65;;;5.28;;
76157;SDS011;64907;51.574;6.502;2023-06-14T00:10:52;5.90;;;5.50;;
76157;SDS011;64907;51.574;6.502;2023-06-14T00:13:17;6.93;;;5.30;;
76157;SDS011;64907;51.574;6.502;2023-06-14T00:15:42;5.60;;;5.20;;
76157;SDS011;64907;51.574;6.502;2023-06-14T00:18:07;9.18;;;5.07;;
76157;SDS011;64907;51.574;6.502;2023-06-14T00:20:34;5.68;;;5.10;;
76157;SDS011;64907;51.574;6.502;2023-06-14T00:23:00;6.70;;;5.20;;
76157;SDS011;64907;51.574;6.502;2023-06-14T00:25:25;6.10;;;5.30;;
76157;SDS011;64907;51.574;6.502;2023-06-14T00:27:51;5.68;;;5.10;;
76157;SDS011;64907;51.574;6.502;2023-06-14T00:30:19;5.95;;;5.40;;
76157;SDS011;64907;51.574;6.502;2023-06-14T00:32:44;5.50;;;4.95;;
76157;SDS011;64907;51.574;6.502;2023-06-14T00:35:09;9.18;;;5.47;;
76157;SDS011;64907;51.574;6.502;2023-06-14T00:37:35;5.80;;;5.30;;
76157;SDS011;64907;51.574;6.502;2023-06-14T00:40:00;5.78;;;5.30;;
76157;SDS011;64907;51.574;6.502;2023-06-14T00:42:26;5.15;;;4.55;;
76157;SDS011;64907;51.574;6.502;2023-06-14T00:44:51;7.53;;;5.13;;
76157;SDS011;64907;51.574;6.502;2023-06-14T00:47:17;7.80;;;5.45;;
76157;SDS011;64907;51.574;6.502;2023-06-14T00:49:42;5.43;;;4.95;;
76157;SDS011;64907;51.574;6.502;2023-06-14T00:52:07;7.40;;;5.40;;
76157;SDS011;64907;51.574;6.502;2023-06-14T00:54:37;8.95;;;5.45;;
76157;SDS011;64907;51.574;6.502;2023-06-14T00:57:02;6.33;;;5.03;;
76157;SDS011;64907;51.574;6.502;2023-06-14T00:59:27;9.38;;;5.03;;
76157;SDS011;64907;51.574;6.502;2023-06-14T01:01:52;6.17;;;5.00;;
76157;SDS011;64907;51.574;6.502;2023-06-14T01:04:17;6.65;;;5.30;;
76157;SDS011;64907;51.574;6.502;2023-06-14T01:06:45;5.27;;;4.73;;
76157;SDS011;64907;51.574;6.502;2023-06-14T01:14:34;5.35;;;4.88;;
76157;SDS011;64907;51.574;6.502;2023-06-14T01:16:59;6.82;;;4.95;;
76157;SDS011;64907;51.574;6.502;2023-06-14T01:19:25;5.40;;;5.00;;
76157;SDS011;64907;51.574;6.502;2023-06-14T01:21:50;9.02;;;5.45;;
76157;SDS011;64907;51.574;6.502;2023-06-14T01:24:16;4.93;;;4.63;;
76157;SDS011;64907;51.574;6.502;2023-06-14T01:26:41;6.93;;;5.18;;
76157;SDS011;64907;51.574;6.502;2023-06-14T01:29:10;7.00;;;4.85;;
76157;SDS011;64907;51.574;6.502;2023-06-14T01:31:36;5.10;;;4.60;;
76157;SDS011;64907;51.574;6.502;2023-06-14T01:34:06;5.20;;;4.70;;
76157;SDS011;64907;51.574;6.502;2023-06-14T01:36:31;5.28;;;4.85;;
76157;SDS011;64907;51.574;6.502;2023-06-14T01:38:56;5.22;;;4.72;;
76157;SDS011;64907;51.574;6.502;2023-06-14T01:41:23;4.80;;;4.40;;
76157;SDS011;64907;51.574;6.502;2023-06-14T01:43:49;5.78;;;4.80;;
76157;SDS011;64907;51.574;6.502;2023-06-14T01:46:14;5.15;;;4.70;;
76157;SDS011;64907;51.574;6.502;2023-06-14T01:48:40;5.47;;;4.72;;
76157;SDS011;64907;51.574;6.502;2023-06-14T01:51:05;4.93;;;4.30;;
76157;SDS011;64907;51.574;6.502;2023-06-14T01:53:30;6.57;;;4.85;;
76157;SDS011;64907;51.574;6.502;2023-06-14T01:55:55;4.87;;;4.57;;
76157;SDS011;64907;51.574;6.502;2023-06-14T01:58:21;6.43;;;4.80;;
76157;SDS011;64907;51.574;6.502;2023-06-14T02:00:46;5.13;;;4.60;;
76157;SDS011;64907;51.574;6.502;2023-06-14T02:03:12;6.93;;;4.10;;
76157;SDS011;64907;51.574;6.502;2023-06-14T02:05:38;6.93;;;4.32;;
76157;SDS011;64907;51.574;6.502;2023-06-14T02:08:04;4.40;;;4.10;;
76157;SDS011;64907;51.574;6.502;2023-06-14T02:10:30;4.95;;;4.63;;
76157;SDS011;64907;51.574;6.502;2023-06-14T02:12:55;5.38;;;4.97;;
76157;SDS011;64907;51.574;6.502;2023-06-14T02:15:20;5.43;;;5.03;;
76157;SDS011;64907;51.574;6.502;2023-06-14T02:17:46;5.07;;;4.65;;
76157;SDS011;64907;51.574;6.502;2023-06-14T02:20:12;4.72;;;4.40;;
76157;SDS011;64907;51.574;6.502;2023-06-14T02:22:37;4.90;;;4.60;;
76157;SDS011;64907;51.574;6.502;2023-06-14T02:25:02;4.97;;;4.68;;
76157;SDS011;64907;51.574;6.502;2023-06-14T02:27:27;6.18;;;4.70;;
76157;SDS011;64907;51.574;6.502;2023-06-14T02:29:53;6.07;;;4.28;;
76157;SDS011;64907;51.574;6.502;2023-06-14T02:32:18;4.78;;;4.47;;
76157;SDS011;64907;51.574;6.502;2023-06-14T02:34:43;4.97;;;4.57;;
76157;SDS011;64907;51.574;6.502;2023-06-14T02:37:08;4.53;;;4.22;;
76157;SDS011;64907;51.574;6.502;2023-06-14T02:39:34;5.77;;;4.60;;
76157;SDS011;64907;51.574;6.502;2023-06-14T02:41:59;4.53;;;4.00;;
76157;SDS011;64907;51.574;6.502;2023-06-14T02:44:25;6.40;;;4.20;;
76157;SDS011;64907;51.574;6.502;2023-06-14T02:46:53;5.55;;;4.43;;
76157;SDS011;64907;51.574;6.502;2023-06-14T02:49:18;7.38;;;4.45;;
76157;SDS011;64907;51.574;6.502;2023-06-14T02:51:44;5.75;;;4.53;;
76157;SDS011;64907;51.574;6.502;2023-06-14T02:54:09;4.97;;;4.60;;
76157;SDS011;64907;51.574;6.502;2023-06-14T02:56:35;5.70;;;4.35;;
76157;SDS011;64907;51.574;6.502;2023-06-14T02:59:00;5.47;;;4.95;;
76157;SDS011;64907;51.574;6.502;2023-06-14T03:01:26;5.22;;;3.95;;
76157;SDS011;64907;51.574;6.502;2023-06-14T03:03:59;5.38;;;4.78;;
76157;SDS011;64907;51.574;6.502;2023-06-14T03:06:25;5.57;;;4.40;;
76157;SDS011;64907;51.574;6.502;2023-06-14T03:08:50;4.17;;;3.87;;
76157;SDS011;64907;51.574;6.502;2023-06-14T03:11:15;7.15;;;4.32;;
76157;SDS011;64907;51.574;6.502;2023-06-14T03:13:42;5.15;;;4.65;;
76157;SDS011;64907;51.574;6.502;2023-06-14T03:16:08;4.55;;;4.13;;
76157;SDS011;64907;51.574;6.502;2023-06-14T03:18:33;4.75;;;4.28;;
76157;SDS011;64907;51.574;6.502;2023-06-14T03:21:00;9.20;;;4.45;;
76157;SDS011;64907;51.574;6.502;2023-06-14T03:23:25;4.20;;;3.95;;
76157;SDS011;64907;51.574;6.502;2023-06-14T03:25:51;5.50;;;4.75;;
76157;SDS011;64907;51.574;6.502;2023-06-14T03:28:16;5.40;;;4.13;;
76157;SDS011;64907;51.574;6.502;2023-06-14T03:30:42;4.38;;;3.90;;
76157;SDS011;64907;51.574;6.502;2023-06-14T03:33:07;4.22;;;3.92;;
76157;SDS011;64907;51.574;6.502;2023-06-14T03:35:33;4.32;;;4.00;;
76157;SDS011;64907;51.574;6.502;2023-06-14T03:37:58;5.20;;;3.97;;
76157;SDS011;64907;51.574;6.502;2023-06-14T03:40:23;4.90;;;4.60;;
76157;SDS011;64907;51.574;6.502;2023-06-14T03:42:53;4.70;;;4.30;;
76157;SDS011;64907;51.574;6.502;2023-06-14T03:45:18;4.80;;;4.38;;
76157;SDS011;64907;51.574;6.502;2023-06-14T03:47:43;5.33;;;4.20;;
76157;SDS011;64907;51.574;6.502;2023-06-14T03:50:08;4.57;;;4.23;;
76157;SDS011;64907;51.574;6.502;2023-06-14T03:52:34;4.68;;;4.28;;
76157;SDS011;64907;51.574;6.502;2023-06-14T03:54:59;5.03;;;4.57;;
76157;SDS011;64907;51.574;6.502;2023-06-14T03:57:25;4.53;;;4.10;;
76157;SDS011;64907;51.574;6.502;2023-06-14T03:59:50;4.65;;;4.18;;
76157;SDS011;64907;51.574;6.502;2023-06-14T04:02:16;4.68;;;4.28;;
76157;SDS011;64907;51.574;6.502;2023-06-14T04:04:44;6.68;;;3.97;;
76157;SDS011;64907;51.574;6.502;2023-06-14T04:07:11;4.15;;;3.75;;
76157;SDS011;64907;51.574;6.502;2023-06-14T04:09:36;7.05;;;4.50;;
76157;SDS011;64907;51.574;6.502;2023-06-14T04:12:01;8.35;;;4.10;;
76157;SDS011;64907;51.574;6.502;2023-06-14T04:14:27;4.60;;;4.07;;
76157;SDS011;64907;51.574;6.502;2023-06-14T04:16:52;4.47;;;4.17;;
76157;SDS011;64907;51.574;6.502;2023-06-14T04:19:17;7.53;;;4.00;;
76157;SDS011;64907;51.574;6.502;2023-06-14T04:21:42;7.40;;;4.43;;
76157;SDS011;64907;51.574;6.502;2023-06-14T04:24:07;4.45;;;4.05;;
76157;SDS011;64907;51.574;6.502;2023-06-14T04:26:38;4.55;;;3.70;;
76157;SDS011;64907;51.574;6.502;2023-06-14T04:29:04;8.60;;;3.92;;
76157;SDS011;64907;51.574;6.502;2023-06-14T04:31:30;7.63;;;4.18;;
76157;SDS011;64907;51.574;6.502;2023-06-14T04:33:58;3.83;;;3.50;;
76157;SDS011;64907;51.574;6.502;2023-06-14T04:36:24;6.22;;;3.97;;
76157;SDS011;64907;51.574;6.502;2023-06-14T04:38:49;10.85;;;4.15;;
76157;SDS011;64907;51.574;6.502;2023-06-14T04:41:19;4.80;;;3.97;;
76157;SDS011;64907;51.574;6.502;2023-06-14T04:43:44;5.68;;;4.97;;
76157;SDS011;64907;51.574;6.502;2023-06-14T04:46:13;7.25;;;4.00;;
76157;SDS011;64907;51.574;6.502;2023-06-14T04:48:39;4.35;;;3.60;;
76157;SDS011;64907;51.574;6.502;2023-06-14T04:51:08;5.47;;;4.15;;
76157;SDS011;64907;51.574;6.502;2023-06-14T04:53:33;4.72;;;3.58;;
76157;SDS011;64907;51.574;6.502;2023-06-14T04:55:59;5.65;;;4.07;;
76157;SDS011;64907;51.574;6.502;2023-06-14T04:58:25;5.55;;;4.10;;
76157;SDS011;64907;51.574;6.502;2023-06-14T05:00:50;5.60;;;3.70;;
76157;SDS011;64907;51.574;6.502;2023-06-14T05:03:16;6.37;;;3.40;;
76157;SDS011;64907;51.574;6.502;2023-06-14T05:05:43;4.07;;;3.75;;
76157;SDS011;64907;51.574;6.502;2023-06-14T05:08:08;5.70;;;3.57;;
76157;SDS011;64907;51.574;6.502;2023-06-14T05:10:34;3.55;;;3.25;;
76157;SDS011;64907;51.574;6.502;2023-06-14T05:13:01;4.15;;;3.75;;
76157;SDS011;64907;51.574;6.502;2023-06-14T05:15:26;7.90;;;3.33;;
76157;SDS011;64907;51.574;6.502;2023-06-14T05:17:51;4.47;;;3.63;;
76157;SDS011;64907;51.574;6.502;2023-06-14T05:20:20;5.25;;;3.90;;
76157;SDS011;64907;51.574;6.502;2023-06-14T05:22:46;3.78;;;3.50;;
76157;SDS011;64907;51.574;6.502;2023-06-14T05:25:11;4.10;;;3.80;;
76157;SDS011;64907;51.574;6.502;2023-06-14T05:27:38;4.80;;;3.70;;
76157;SDS011;64907;51.574;6.502;2023-06-14T05:30:06;7.88;;;3.63;;
76157;SDS011;64907;51.574;6.502;2023-06-14T05:32:32;6.45;;;3.95;;
76157;SDS011;64907;51.574;6.502;2023-06-14T05:34:57;5.00;;;4.13;;
76157;SDS011;64907;51.574;6.502;2023-06-14T05:37:22;3.40;;;3.20;;
76157;SDS011;64907;51.574;6.502;2023-06-14T05:39:47;7.63;;;3.70;;
76157;SDS011;64907;51.574;6.502;2023-06-14T05:42:12;4.33;;;3.40;;
76157;SDS011;64907;51.574;6.502;2023-06-14T05:44:37;6.20;;;3.50;;
76157;SDS011;64907;51.574;6.502;2023-06-14T05:47:03;6.13;;;3.63;;
76157;SDS011;64907;51.574;6.502;2023-06-14T05:49:28;5.18;;;3.33;;
76157;SDS011;64907;51.574;6.502;2023-06-14T05:51:53;6.53;;;3.67;;
76157;SDS011;64907;51.574;6.502;2023-06-14T05:54:18;6.30;;;3.85;;
76157;SDS011;64907;51.574;6.502;2023-06-14T05:56:44;5.95;;;3.30;;
76157;SDS011;64907;51.574;6.502;2023-06-14T05:59:09;4.22;;;3.83;;
76157;SDS011;64907;51.574;6.502;2023-06-14T06:01:34;4.88;;;3.70;;
76157;SDS011;64907;51.574;6.502;2023-06-14T06:04:01;13.35;;;4.47;;
76157;SDS011;64907;51.574;6.502;2023-06-14T06:06:26;8.48;;;3.45;;
76157;SDS011;64907;51.574;6.502;2023-06-14T06:08:52;4.87;;;3.70;;
76157;SDS011;64907;51.574;6.502;2023-06-14T06:11:17;3.50;;;3.30;;
76157;SDS011;64907;51.574;6.502;2023-06-14T06:13:42;6.00;;;3.75;;
76157;SDS011;64907;51.574;6.502;2023-06-14T06:16:07;4.93;;;3.50;;
76157;SDS011;64907;51.574;6.502;2023-06-14T06:18:33;7.97;;;3.65;;
76157;SDS011;64907;51.574;6.502;2023-06-14T06:20:58;8.10;;;3.67;;
76157;SDS011;64907;51.574;6.502;2023-06-14T06:23:23;4.15;;;3.78;;
76157;SDS011;64907;51.574;6.502;2023-06-14T06:25:48;9.07;;;3.72;;
76157;SDS011;64907;51.574;6.502;2023-06-14T06:28:13;10.13;;;3.47;;
76157;SDS011;64907;51.574;6.502;2023-06-14T06:30:40;5.35;;;3.50;;
76157;SDS011;64907;51.574;6.502;2023-06-14T06:33:05;6.50;;;3.17;;
76157;SDS011;64907;51.574;6.502;2023-06-14T06:35:30;7.57;;;3.60;;
76157;SDS011;64907;51.574;6.502;2023-06-14T06:37:57;3.78;;;3.20;;
76157;SDS011;64907;51.574;6.502;2023-06-14T06:40:23;3.75;;;3.40;;
76157;SDS011;64907;51.574;6.502;2023-06-14T06:42:48;3.70;;;3.20;;
76157;SDS011;64907;51.574;6.502;2023-06-14T06:45:15;4.05;;;3.55;;
76157;SDS011;64907;51.574;6.502;2023-06-14T06:47:40;5.68;;;3.38;;
76157;SDS011;64907;51.574;6.502;2023-06-14T06:50:05;3.97;;;3.40;;
76157;SDS011;64907;51.574;6.502;2023-06-14T06:52:32;5.95;;;3.33;;
76157;SDS011;64907;51.574;6.502;2023-06-14T06:54:57;3.33;;;2.90;;
76157;SDS011;64907;51.574;6.502;2023-06-14T06:57:22;4.50;;;3.03;;
76157;SDS011;64907;51.574;6.502;2023-06-14T06:59:48;6.07;;;2.70;;
76157;SDS011;64907;51.574;6.502;2023-06-14T07:02:13;19.08;;;3.63;;
76157;SDS011;64907;51.574;6.502;2023-06-14T07:04:38;7.87;;;2.63;;
76157;SDS011;64907;51.574;6.502;2023-06-14T07:07:04;4.30;;;2.40;;
76157;SDS011;64907;51.574;6.502;2023-06-14T07:09:29;3.22;;;2.92;;
76157;SDS011;64907;51.574;6.502;2023-06-14T07:11:54;4.93;;;2.28;;
76157;SDS011;64907;51.574;6.502;2023-06-14T07:14:20;3.90;;;2.60;;
76157;SDS011;64907;51.574;6.502;2023-06-14T07:16:47;3.58;;;2.88;;
76157;SDS011;64907;51.574;6.502;2023-06-14T07:19:14;4.32;;;2.30;;
76157;SDS011;64907;51.574;6.502;2023-06-14T07:21:39;7.07;;;1.90;;
76157;SDS011;64907;51.574;6.502;2023-06-14T07:24:05;7.70;;;2.43;;
76157;SDS011;64907;51.574;6.502;2023-06-14T07:26:31;6.35;;;2.30;;
76157;SDS011;64907;51.574;6.502;2023-06-14T07:28:56;3.40;;;2.20;;
76157;SDS011;64907;51.574;6.502;2023-06-14T07:31:21;5.73;;;2.40;;
76157;SDS011;64907;51.574;6.502;2023-06-14T07:33:47;11.95;;;2.80;;
76157;SDS011;64907;51.574;6.502;2023-06-14T07:36:12;2.97;;;2.77;;
76157;SDS011;64907;51.574;6.502;2023-06-14T07:38:37;3.13;;;2.30;;
76157;SDS011;64907;51.574;6.502;2023-06-14T07:41:02;12.02;;;2.20;;
76157;SDS011;64907;51.574;6.502;2023-06-14T07:43:28;4.72;;;2.63;;
76157;SDS011;64907;51.574;6.502;2023-06-14T07:45:53;3.13;;;2.33;;
76157;SDS011;64907;51.574;6.502;2023-06-14T07:48:18;4.32;;;2.10;;
76157;SDS011;64907;51.574;6.502;2023-06-14T07:50:44;4.43;;;2.40;;
76157;SDS011;64907;51.574;6.502;2023-06-14T07:53:09;4.85;;;2.35;;
76157;SDS011;64907;51.574;6.502;2023-06-14T07:55:34;4.50;;;2.15;;
76157;SDS011;64907;51.574;6.502;2023-06-14T07:58:02;5.68;;;2.40;;
76157;SDS011;64907;51.574;6.502;2023-06-14T08:00:27;3.78;;;2.40;;
76157;SDS011;64907;51.574;6.502;2023-06-14T08:02:53;2.33;;;2.20;;
76157;SDS011;64907;51.574;6.502;2023-06-14T08:05:24;2.50;;;2.30;;
76157;SDS011;64907;51.574;6.502;2023-06-14T08:07:49;2.83;;;2.60;;
76157;SDS011;64907;51.574;6.502;2023-06-14T08:10:14;4.32;;;2.65;;
76157;SDS011;64907;51.574;6.502;2023-06-14T08:12:40;6.80;;;2.37;;
76157;SDS011;64907;51.574;6.502;2023-06-14T08:15:06;3.80;;;2.45;;
76157;SDS011;64907;51.574;6.502;2023-06-14T08:17:31;3.60;;;2.33;;
76157;SDS011;64907;51.574;6.502;2023-06-14T08:19:56;2.93;;;2.30;;
76157;SDS011;64907;51.574;6.502;2023-06-14T08:22:22;3.42;;;2.40;;
76157;SDS011;64907;51.574;6.502;2023-06-14T08:24:49;2.80;;;2.10;;
76157;SDS011;64907;51.574;6.502;2023-06-14T08:27:14;2.30;;;2.10;;
76157;SDS011;64907;51.574;6.502;2023-06-14T08:29:40;3.15;;;2.33;;
76157;SDS011;64907;51.574;6.502;2023-06-14T08:32:07;4.43;;;2.10;;
76157;SDS011;64907;51.574;6.502;2023-06-14T08:34:33;2.40;;;2.30;;
76157;SDS011;64907;51.574;6.502;2023-06-14T08:37:00;2.75;;;2.55;;
76157;SDS011;64907;51.574;6.502;2023-06-14T08:39:25;2.83;;;2.60;;
76157;SDS011;64907;51.574;6.502;2023-06-14T08:41:50;2.90;;;2.40;;
76157;SDS011;64907;51.574;6.502;2023-06-14T08:44:17;2.13;;;2.03;;
76157;SDS011;64907;51.574;6.502;2023-06-14T08:46:42;2.42;;;2.30;;
76157;SDS011;64907;51.574;6.502;2023-06-14T08:51:40;2.45;;;2.25;;
76157;SDS011;64907;51.574;6.502;2023-06-14T08:54:06;2.40;;;2.20;;
76157;SDS011;64907;51.574;6.502;2023-06-14T08:56:32;4.55;;;2.42;;
76157;SDS011;64907;51.574;6.502;2023-06-14T08:58:59;2.83;;;2.38;;
76157;SDS011;64907;51.574;6.502;2023-06-14T09:01:28;3.65;;;1.88;;
76157;SDS011;64907;51.574;6.502;2023-06-14T09:03:53;2.78;;;2.53;;
76157;SDS011;64907;51.574;6.502;2023-06-14T09:06:19;5.07;;;2.45;;
76157;SDS011;64907;51.574;6.502;2023-06-14T09:08:48;6.07;;;2.63;;
76157;SDS011;64907;51.574;6.502;2023-06-14T09:11:15;2.50;;;2.25;;
76157;SDS011;64907;51.574;6.502;2023-06-14T09:13:41;2.78;;;2.40;;
76157;SDS011;64907;51.574;6.502;2023-06-14T09:16:07;1.95;;;1.85;;
76157;SDS011;64907;51.574;6.502;2023-06-14T09:18:35;4.38;;;2.63;;
76157;SDS011;64907;51.574;6.502;2023-06-14T09:21:01;2.55;;;2.35;;
76157;SDS011;64907;51.574;6.502;2023-06-14T09:23:26;2.30;;;1.87;;
76157;SDS011;64907;51.574;6.502;2023-06-14T09:25:51;2.23;;;1.93;;
76157;SDS011;64907;51.574;6.502;2023-06-14T09:28:16;6.33;;;2.83;;
76157;SDS011;64907;51.574;6.502;2023-06-14T09:30:41;5.30;;;1.90;;
76157;SDS011;64907;51.574;6.502;2023-06-14T09:33:07;2.95;;;1.88;;
76157;SDS011;64907;51.574;6.502;2023-06-14T09:35:32;4.72;;;2.17;;
76157;SDS011;64907;51.574;6.502;2023-06-14T09:37:57;3.17;;;2.33;;
76157;SDS011;64907;51.574;6.502;2023-06-14T09:40:23;4.50;;;1.90;;
76157;SDS011;64907;51.574;6.502;2023-06-14T09:42:48;2.20;;;2.10;;
76157;SDS011;64907;51.574;6.502;2023-06-14T09:45:14;3.45;;;2.22;;
76157;SDS011;64907;51.574;6.502;2023-06-14T09:47:44;2.17;;;2.08;;
76157;SDS011;64907;51.574;6.502;2023-06-14T09:50:10;2.17;;;2.08;;
76157;SDS011;64907;51.574;6.502;2023-06-14T09:52:35;2.28;;;2.08;;
76157;SDS011;64907;51.574;6.502;2023-06-14T09:55:01;2.65;;;2.47;;
76157;SDS011;64907;51.574;6.502;2023-06-14T09:57:33;3.92;;;1.98;;
76157;SDS011;64907;51.574;6.502;2023-06-14T10:00:00;1.85;;;1.75;;
76157;SDS011;64907;51.574;6.502;2023-06-14T10:02:29;6.70;;;2.20;;
76157;SDS011;64907;51.574;6.502;2023-06-14T10:07:25;5.88;;;2.13;;
76157;SDS011;64907;51.574;6.502;2023-06-14T10:09:53;2.25;;;2.05;;
76157;SDS011;64907;51.574;6.502;2023-06-14T10:12:18;3.70;;;1.90;;
76157;SDS011;64907;51.574;6.502;2023-06-14T10:14:50;1.80;;;1.80;;
76157;SDS011;64907;51.574;6.502;2023-06-14T10:17:25;1.88;;;1.88;;
76157;SDS011;64907;51.574;6.502;2023-06-14T10:19:55;1.92;;;1.83;;
76157;SDS011;64907;51.574;6.502;2023-06-14T10:22:29;4.13;;;1.90;;
76157;SDS011;64907;51.574;6.502;2023-06-14T10:24:55;2.47;;;1.67;;
76157;SDS011;64907;51.574;6.502;2023-06-14T10:27:20;6.20;;;2.05;;
76157;SDS011;64907;51.574;6.502;2023-06-14T10:32:23;7.60;;;1.80;;
76157;SDS011;64907;51.574;6.502;2023-06-14T10:34:56;2.70;;;1.50;;
76157;SDS011;64907;51.574;6.502;2023-06-14T10:37:21;3.33;;;1.50;;
76157;SDS011;64907;51.574;6.502;2023-06-14T10:39:47;1.37;;;1.37;;
76157;SDS011;64907;51.574;6.502;2023-06-14T10:42:12;1.63;;;1.52;;
76157;SDS011;64907;51.574;6.502;2023-06-14T10:47:19;4.05;;;1.60;;
76157;SDS011;64907;51.574;6.502;2023-06-14T10:49:49;2.22;;;1.50;;
76157;SDS011;64907;51.574;6.502;2023-06-14T10:52:15;3.53;;;1.60;;
76157;SDS011;64907;51.574;6.502;2023-06-14T10:57:27;4.28;;;1.40;;
76157;SDS011;64907;51.574;6.502;2023-06-14T10:59:52;1.50;;;1.50;;
76157;SDS011;64907;51.574;6.502;2023-06-14T11:02:23;1.20;;;1.20;;
76157;SDS011;64907;51.574;6.502;2023-06-14T11:04:52;1.85;;;1.40;;
76157;SDS011;64907;51.574;6.502;2023-06-14T11:09:51;2.10;;;1.48;;
76157;SDS011;64907;51.574;6.502;2023-06-14T11:12:24;3.75;;;1.40;;
76157;SDS011;64907;51.574;6.502;2023-06-14T11:14:51;3.38;;;1.40;;
76157;SDS011;64907;51.574;6.502;2023-06-14T11:17:16;1.30;;;1.20;;
76157;SDS011;64907;51.574;6.502;2023-06-14T11:19:41;4.53;;;1.37;;
76157;SDS011;64907;51.574;6.502;2023-06-14T11:22:08;1.40;;;1.33;;
76157;SDS011;64907;51.574;6.502;2023-06-14T11:24:34;1.95;;;1.40;;
76157;SDS011;64907;51.574;6.502;2023-06-14T11:27:00;2.55;;;1.20;;
76157;SDS011;64907;51.574;6.502;2023-06-14T11:29:25;1.30;;;1.25;;
76157;SDS011;64907;51.574;6.502;2023-06-14T11:31:50;2.27;;;1.10;;
76157;SDS011;64907;51.574;6.502;2023-06-14T11:34:15;2.10;;;1.40;;
76157;SDS011;64907;51.574;6.502;2023-06-14T11:36:41;1.30;;;1.30;;
76157;SDS011;64907;51.574;6.502;2023-06-14T11:39:07;2.75;;;1.88;;
76157;SDS011;64907;51.574;6.502;2023-06-14T11:41:33;1.65;;;1.55;;
76157;SDS011;64907;51.574;6.502;2023-06-14T11:43:59;2.38;;;1.20;;
76157;SDS011;64907;51.574;6.502;2023-06-14T11:46:25;3.35;;;1.23;;
76157;SDS011;64907;51.574;6.502;2023-06-14T11:48:50;3.88;;;1.10;;
76157;SDS011;64907;51.574;6.502;2023-06-14T11:51:16;1.38;;;1.30;;
76157;SDS011;64907;51.574;6.502;2023-06-14T11:53:42;4.05;;;1.25;;
76157;SDS011;64907;51.574;6.502;2023-06-14T11:56:07;2.65;;;1.42;;
76157;SDS011;64907;51.574;6.502;2023-06-14T11:58:32;1.50;;;1.05;;
76157;SDS011;64907;51.574;6.502;2023-06-14T12:00:57;2.37;;;1.30;;
76157;SDS011;64907;51.574;6.502;2023-06-14T12:03:23;5.60;;;1.50;;
76157;SDS011;64907;51.574;6.502;2023-06-14T12:05:50;3.03;;;1.40;;
76157;SDS011;64907;51.574;6.502;2023-06-14T12:08:16;1.30;;;1.20;;
76157;SDS011;64907;51.574;6.502;2023-06-14T12:10:42;7.80;;;1.58;;
76157;SDS011;64907;51.574;6.502;2023-06-14T12:13:08;1.52;;;1.40;;
76157;SDS011;64907;51.574;6.502;2023-06-14T12:15:34;2.25;;;1.65;;
76157;SDS011;64907;51.574;6.502;2023-06-14T12:17:59;1.30;;;1.30;;
76157;SDS011;64907;51.574;6.502;2023-06-14T12:20:29;2.70;;;1.38;;
76157;SDS011;64907;51.574;6.502;2023-06-14T12:22:55;2.45;;;0.98;;
76157;SDS011;64907;51.574;6.502;2023-06-14T12:27:55;2.33;;;1.40;;
76157;SDS011;64907;51.574;6.502;2023-06-14T12:30:21;2.25;;;1.40;;
76157;SDS011;64907;51.574;6.502;2023-06-14T12:32:46;1.92;;;1.30;;
76157;SDS011;64907;51.574;6.502;2023-06-14T12:35:11;1.40;;;1.30;;
76157;SDS011;64907;51.574;6.502;2023-06-14T12:37:37;3.07;;;1.40;;
76157;SDS011;64907;51.574;6.502;2023-06-14T12:40:03;3.28;;;1.42;;
76157;SDS011;64907;51.574;6.502;2023-06-14T12:42:32;2.00;;;1.65;;
76157;SDS011;64907;51.574;6.502;2023-06-14T12:44:58;1.95;;;1.50;;
76157;SDS011;64907;51.574;6.502;2023-06-14T12:47:25;4.78;;;1.42;;
76157;SDS011;64907;51.574;6.502;2023-06-14T12:49:50;5.15;;;1.60;;
76157;SDS011;64907;51.574;6.502;2023-06-14T12:52:15;1.50;;;1.37;;
76157;SDS011;64907;51.574;6.502;2023-06-14T12:54:40;1.60;;;1.50;;
76157;SDS011;64907;51.574;6.502;2023-06-14T12:57:06;4.17;;;1.83;;
76157;SDS011;64907;51.574;6.502;2023-06-14T12:59:31;1.40;;;1.40;;
76157;SDS011;64907;51.574;6.502;2023-06-14T13:01:59;2.05;;;1.40;;
76157;SDS011;64907;51.574;6.502;2023-06-14T13:04:24;5.75;;;1.70;;
76157;SDS011;64907;51.574;6.502;2023-06-14T13:06:49;3.55;;;1.27;;
76157;SDS011;64907;51.574;6.502;2023-06-14T13:09:14;3.85;;;1.98;;
76157;SDS011;64907;51.574;6.502;2023-06-14T13:11:40;2.38;;;1.45;;
76157;SDS011;64907;51.574;6.502;2023-06-14T13:16:36;1.70;;;1.60;;
76157;SDS011;64907;51.574;6.502;2023-06-14T13:19:02;2.10;;;1.47;;
76157;SDS011;64907;51.574;6.502;2023-06-14T13:21:27;1.60;;;1.50;;
76157;SDS011;64907;51.574;6.502;2023-06-14T13:23:52;6.47;;;2.53;;
76157;SDS011;64907;51.574;6.502;2023-06-14T13:26:18;3.67;;;1.80;;
76157;SDS011;64907;51.574;6.502;2023-06-14T13:28:44;1.37;;;1.37;;
76157;SDS011;64907;51.574;6.502;2023-06-14T13:31:09;1.50;;;1.50;;
76157;SDS011;64907;51.574;6.502;2023-06-14T13:33:34;2.43;;;1.80;;
76157;SDS011;64907;51.574;6.502;2023-06-14T13:35:59;1.88;;;1.88;;
76157;SDS011;64907;51.574;6.502;2023-06-14T13:38:24;13.27;;;2.13;;
76157;SDS011;64907;51.574;6.502;2023-06-14T13:40:50;1.50;;;1.40;;
76157;SDS011;64907;51.574;6.502;2023-06-14T13:43:15;3.53;;;1.77;;
76157;SDS011;64907;51.574;6.502;2023-06-14T13:45:40;2.75;;;1.50;;
76157;SDS011;64907;51.574;6.502;2023-06-14T13:48:05;4.10;;;1.80;;
76157;SDS011;64907;51.574;6.502;2023-06-14T13:50:31;2.70;;;1.80;;
76157;SDS011;64907;51.574;6.502;2023-06-14T13:52:56;3.88;;;1.40;;
76157;SDS011;64907;51.574;6.502;2023-06-14T13:55:21;3.80;;;1.90;;
76157;SDS011;64907;51.574;6.502;2023-06-14T13:57:46;5.07;;;2.05;;
76157;SDS011;64907;51.574;6.502;2023-06-14T14:00:12;3.65;;;1.90;;
76157;SDS011;64907;51.574;6.502;2023-06-14T14:02:37;5.43;;;1.92;;
76157;SDS011;64907;51.574;6.502;2023-06-14T14:05:02;1.88;;;1.77;;
76157;SDS011;64907;51.574;6.502;2023-06-14T14:07:27;4.65;;;2.05;;
76157;SDS011;64907;51.574;6.502;2023-06-14T14:09:53;4.05;;;1.90;;
76157;SDS011;64907;51.574;6.502;2023-06-14T14:12:19;2.00;;;1.85;;
76157;SDS011;64907;51.574;6.502;2023-06-14T14:14:44;2.58;;;1.90;;
76157;SDS011;64907;51.574;6.502;2023-06-14T14:17:09;2.03;;;1.80;;
76157;SDS011;64907;51.574;6.502;2023-06-14T14:19:34;3.88;;;2.20;;
76157;SDS011;64907;51.574;6.502;2023-06-14T14:21:59;2.55;;;2.35;;
76157;SDS011;64907;51.574;6.502;2023-06-14T14:24:28;2.00;;;2.00;;
76157;SDS011;64907;51.574;6.502;2023-06-14T14:26:55;3.42;;;2.20;;
76157;SDS011;64907;51.574;6.502;2023-06-14T14:29:24;4.00;;;2.20;;
76157;SDS011;64907;51.574;6.502;2023-06-14T14:31:50;2.83;;;2.38;;
76157;SDS011;64907;51.574;6.502;2023-06-14T14:34:15;2.30;;;2.13;;
76157;SDS011;64907;51.574;6.502;2023-06-14T14:36:40;4.00;;;2.30;;
76157;SDS011;64907;51.574;6.502;2023-06-14T14:39:08;6.30;;;2.45;;
76157;SDS011;64907;51.574;6.502;2023-06-14T14:41:33;2.10;;;2.00;;
76157;SDS011;64907;51.574;6.502;2023-06-14T14:43:59;2.53;;;2.20;;
76157;SDS011;64907;51.574;6.502;2023-06-14T14:46:25;2.10;;;2.00;;
76157;SDS011;64907;51.574;6.502;2023-06-14T14:48:51;2.25;;;2.08;;
76157;SDS011;64907;51.574;6.502;2023-06-14T14:51:16;2.13;;;2.00;;
76157;SDS011;64907;51.574;6.502;2023-06-14T14:53:41;2.33;;;2.13;;
76157;SDS011;64907;51.574;6.502;2023-06-14T14:56:06;5.65;;;2.50;;
76157;SDS011;64907;51.574;6.502;2023-06-14T14:58:31;4.63;;;2.47;;
76157;SDS011;64907;51.574;6.502;2023-06-14T15:00:57;2.22;;;2.13;;
76157;SDS011;64907;51.574;6.502;2023-06-14T15:03:22;2.90;;;2.50;;
76157;SDS011;64907;51.574;6.502;2023-06-14T15:05:47;2.63;;;2.43;;